sensor_id;sensor_type;location;lat;lon;timestamp;pressure;altitude;pressure_sealevel;temperature;humidity
11268;BME280;49397;47.474;9.416;2023-08-30T00:01:15;95020.84;;;11.67;98.98
11268;BME280;49397;47.474;9.416;2023-08-30T00:03:40;95026.84;;;11.64;98.19
11268;BME280;49397;47.474;9.416;2023-08-30T00:06:06;95024.97;;;11.64;98.04
11268;BME280;49397;47.474;9.416;2023-08-30T00:08:32;95026.06;;;11.63;99.67
11268;BME280;49397;47.474;9.416;2023-08-30T00:10:58;95019.94;;;11.63;99.21
11268;BME280;49397;47.474;9.416;2023-08-30T00:13:26;95019.63;;;11.64;98.63
11268;BME280;49397;47.474;9.416;2023-08-30T00:15:52;95021.50;;;11.64;97.40
11268;BME280;49397;47.474;9.416;2023-08-30T00:18:17;95022.91;;;11.61;97.73
11268;BME280;49397;47.474;9.416;2023-08-30T00:20:45;95027.94;;;11.63;99.16
11268;BME280;49397;47.474;9.416;2023-08-30T00:23:11;95025.28;;;11.63;98.19
11268;BME280;49397;47.474;9.416;2023-08-30T00:25:36;95022.75;;;11.66;100.00
11268;BME280;49397;47.474;9.416;2023-08-30T00:28:01;95015.50;;;11.67;99.96
11268;BME280;49397;47.474;9.416;2023-08-30T00:30:27;95030.78;;;11.66;99.04
11268;BME280;49397;47.474;9.416;2023-08-30T00:32:52;95021.16;;;11.65;99.22
11268;BME280;49397;47.474;9.416;2023-08-30T00:35:18;95024.50;;;11.62;99.05
11268;BME280;49397;47.474;9.416;2023-08-30T00:37:43;95022.78;;;11.58;100.00
11268;BME280;49397;47.474;9.416;2023-08-30T00:40:08;95021.22;;;11.57;100.00
11268;BME280;49397;47.474;9.416;2023-08-30T00:42:34;95029.88;;;11.54;100.00
11268;BME280;49397;47.474;9.416;2023-08-30T00:44:59;95023.44;;;11.55;100.00
11268;BME280;49397;47.474;9.416;2023-08-30T00:47:25;95020.63;;;11.51;100.00
11268;BME280;49397;47.474;9.416;2023-08-30T00:49:50;95023.09;;;11.56;100.00
11268;BME280;49397;47.474;9.416;2023-08-30T00:52:16;95013.63;;;11.59;100.00
11268;BME280;49397;47.474;9.416;2023-08-30T00:54:42;95020.44;;;11.56;100.00
11268;BME280;49397;47.474;9.416;2023-08-30T00:57:08;95010.50;;;11.57;100.00
11268;BME280;49397;47.474;9.416;2023-08-30T00:59:33;95012.75;;;11.46;100.00
11268;BME280;49397;47.474;9.416;2023-08-30T01:01:59;95011.22;;;11.45;100.00
11268;BME280;49397;47.474;9.416;2023-08-30T01:04:27;95007.88;;;11.48;100.00
11268;BME280;49397;47.474;9.416;2023-08-30T01:06:52;95006.31;;;11.47;100.00
11268;BME280;49397;47.474;9.416;2023-08-30T01:09:18;95008.66;;;11.49;100.00
11268;BME280;49397;47.474;9.416;2023-08-30T01:11:57;95008.06;;;11.43;100.00
11268;BME280;49397;47.474;9.416;2023-08-30T01:14:52;95002.53;;;11.48;100.00
11268;BME280;49397;47.474;9.416;2023-08-30T01:17:16;94993.25;;;11.46;100.00
11268;BME280;49397;47.474;9.416;2023-08-30T01:19:50;94998.59;;;11.46;100.00
11268;BME280;49397;47.474;9.416;2023-08-30T01:27:33;94998.78;;;11.41;100.00
11268;BME280;49397;47.474;9.416;2023-08-30T01:30:02;94985.75;;;11.31;100.00
11268;BME280;49397;47.474;9.416;2023-08-30T01:32:29;94988.88;;;11.33;100.00
11268;BME280;49397;47.474;9.416;2023-08-30T01:34:55;94992.84;;;11.27;100.00
11268;BME280;49397;47.474;9.416;2023-08-30T01:37:22;94987.66;;;11.30;100.00
11268;BME280;49397;47.474;9.416;2023-08-30T01:39:49;94988.28;;;11.36;100.00
11268;BME280;49397;47.474;9.416;2023-08-30T01:42:14;94981.69;;;11.25;100.00
11268;BME280;49397;47.474;9.416;2023-08-30T01:44:41;94979.97;;;11.20;100.00
11268;BME280;49397;47.474;9.416;2023-08-30T01:47:10;94979.88;;;11.17;100.00
11268;BME280;49397;47.474;9.416;2023-08-30T01:49:36;94982.19;;;11.18;100.00
11268;BME280;49397;47.474;9.416;2023-08-30T01:52:06;94985.38;;;11.11;100.00
11268;BME280;49397;47.474;9.416;2023-08-30T01:54:31;94984.56;;;11.11;100.00
11268;BME280;49397;47.474;9.416;2023-08-30T01:56:58;94991.97;;;11.14;100.00
11268;BME280;49397;47.474;9.416;2023-08-30T01:59:24;94985.50;;;11.15;100.00
11268;BME280;49397;47.474;9.416;2023-08-30T02:01:51;94976.22;;;11.21;100.00
11268;BME280;49397;47.474;9.416;2023-08-30T02:04:16;94980.63;;;11.17;100.00
11268;BME280;49397;47.474;9.416;2023-08-30T02:09:28;94980.47;;;11.22;100.00
11268;BME280;49397;47.474;9.416;2023-08-30T02:11:56;94977.59;;;11.27;100.00
11268;BME280;49397;47.474;9.416;2023-08-30T02:14:23;94968.78;;;11.27;100.00
11268;BME280;49397;47.474;9.416;2023-08-30T02:16:53;94967.38;;;11.29;100.00
11268;BME280;49397;47.474;9.416;2023-08-30T02:19:20;94961.38;;;11.32;100.00
11268;BME280;49397;47.474;9.416;2023-08-30T02:21:46;94971.31;;;11.23;100.00
11268;BME280;49397;47.474;9.416;2023-08-30T02:24:13;94960.94;;;11.22;100.00
11268;BME280;49397;47.474;9.416;2023-08-30T02:26:38;94970.84;;;11.21;100.00
11268;BME280;49397;47.474;9.416;2023-08-30T02:29:04;94959.84;;;11.23;100.00
11268;BME280;49397;47.474;9.416;2023-08-30T02:31:29;94955.16;;;11.11;100.00
11268;BME280;49397;47.474;9.416;2023-08-30T02:33:54;94950.78;;;11.06;100.00
11268;BME280;49397;47.474;9.416;2023-08-30T02:36:20;94953.97;;;11.00;100.00
11268;BME280;49397;47.474;9.416;2023-08-30T02:38:45;94954.41;;;11.02;100.00
11268;BME280;49397;47.474;9.416;2023-08-30T02:41:10;94945.00;;;10.96;100.00
11268;BME280;49397;47.474;9.416;2023-08-30T02:43:36;94946.41;;;11.02;100.00
11268;BME280;49397;47.474;9.416;2023-08-30T02:46:02;94947.84;;;10.99;100.00
11268;BME280;49397;47.474;9.416;2023-08-30T02:48:29;94947.50;;;11.01;100.00
11268;BME280;49397;47.474;9.416;2023-08-30T02:50:54;94943.28;;;11.00;100.00
11268;BME280;49397;47.474;9.416;2023-08-30T02:53:20;94946.25;;;10.98;100.00
11268;BME280;49397;47.474;9.416;2023-08-30T02:55:47;94947.69;;;10.96;100.00
11268;BME280;49397;47.474;9.416;2023-08-30T02:58:13;94944.91;;;10.84;100.00
11268;BME280;49397;47.474;9.416;2023-08-30T03:00:38;94944.75;;;10.80;100.00
11268;BME280;49397;47.474;9.416;2023-08-30T03:03:04;94950.25;;;10.84;100.00
11268;BME280;49397;47.474;9.416;2023-08-30T03:05:29;94948.38;;;10.84;100.00
11268;BME280;49397;47.474;9.416;2023-08-30T03:07:55;94943.75;;;10.93;100.00
11268;BME280;49397;47.474;9.416;2023-08-30T03:10:20;94940.31;;;10.93;100.00
11268;BME280;49397;47.474;9.416;2023-08-30T03:12:45;94938.72;;;10.92;100.00
11268;BME280;49397;47.474;9.416;2023-08-30T03:15:11;94933.56;;;10.87;100.00
11268;BME280;49397;47.474;9.416;2023-08-30T03:17:36;94940.94;;;10.90;100.00
11268;BME280;49397;47.474;9.416;2023-08-30T03:20:02;94932.59;;;10.91;100.00
11268;BME280;49397;47.474;9.416;2023-08-30T03:22:30;94939.34;;;10.97;100.00
11268;BME280;49397;47.474;9.416;2023-08-30T03:24:55;94935.69;;;11.02;100.00
11268;BME280;49397;47.474;9.416;2023-08-30T03:27:21;94940.09;;;11.06;100.00
11268;BME280;49397;47.474;9.416;2023-08-30T03:29:46;94934.09;;;11.09;100.00
11268;BME280;49397;47.474;9.416;2023-08-30T03:32:15;94933.91;;;11.14;100.00
11268;BME280;49397;47.474;9.416;2023-08-30T03:34:44;94937.84;;;11.17;100.00
11268;BME280;49397;47.474;9.416;2023-08-30T03:37:09;94935.94;;;11.26;100.00
11268;BME280;49397;47.474;9.416;2023-08-30T03:39:35;94934.50;;;11.29;100.00
11268;BME280;49397;47.474;9.416;2023-08-30T03:42:00;94936.44;;;11.20;100.00
11268;BME280;49397;47.474;9.416;2023-08-30T03:44:25;94929.66;;;11.22;100.00
11268;BME280;49397;47.474;9.416;2023-08-30T03:46:51;94932.97;;;11.19;100.00
11268;BME280;49397;47.474;9.416;2023-08-30T03:49:16;94932.97;;;11.19;100.00
11268;BME280;49397;47.474;9.416;2023-08-30T03:51:41;94930.09;;;11.24;100.00
11268;BME280;49397;47.474;9.416;2023-08-30T03:54:07;94936.53;;;11.23;100.00
11268;BME280;49397;47.474;9.416;2023-08-30T03:56:33;94943.47;;;11.24;100.00
11268;BME280;49397;47.474;9.416;2023-08-30T03:58:59;94932.78;;;11.24;100.00
11268;BME280;49397;47.474;9.416;2023-08-30T04:01:24;94938.13;;;11.24;100.00
11268;BME280;49397;47.474;9.416;2023-08-30T04:03:49;94931.19;;;11.23;100.00
11268;BME280;49397;47.474;9.416;2023-08-30T04:06:15;94934.84;;;11.19;100.00
11268;BME280;49397;47.474;9.416;2023-08-30T04:08:40;94939.22;;;11.23;100.00
11268;BME280;49397;47.474;9.416;2023-08-30T04:11:05;94939.34;;;11.27;100.00
11268;BME280;49397;47.474;9.416;2023-08-30T04:13:31;94937.97;;;11.21;100.00
11268;BME280;49397;47.474;9.416;2023-08-30T04:15:56;94941.00;;;11.19;100.00
11268;BME280;49397;47.474;9.416;2023-08-30T04:18:24;94949.97;;;11.14;100.00
11268;BME280;49397;47.474;9.416;2023-08-30T04:20:49;94951.09;;;11.05;100.00
11268;BME280;49397;47.474;9.416;2023-08-30T04:23:14;94956.94;;;11.07;100.00
11268;BME280;49397;47.474;9.416;2023-08-30T04:25:40;94956.59;;;11.08;100.00
11268;BME280;49397;47.474;9.416;2023-08-30T04:28:05;94957.19;;;11.14;100.00
11268;BME280;49397;47.474;9.416;2023-08-30T04:30:31;94951.53;;;11.15;100.00
11268;BME280;49397;47.474;9.416;2023-08-30T04:32:56;94966.94;;;11.19;100.00
11268;BME280;49397;47.474;9.416;2023-08-30T04:35:22;94955.44;;;11.18;100.00
11268;BME280;49397;47.474;9.416;2023-08-30T04:37:47;94957.69;;;11.16;100.00
11268;BME280;49397;47.474;9.416;2023-08-30T04:40:13;94955.16;;;11.20;100.00
11268;BME280;49397;47.474;9.416;2023-08-30T04:42:39;94957.47;;;11.21;100.00
11268;BME280;49397;47.474;9.416;2023-08-30T04:45:06;94956.38;;;11.22;100.00
11268;BME280;49397;47.474;9.416;2023-08-30T04:47:32;94952.09;;;11.30;100.00
11268;BME280;49397;47.474;9.416;2023-08-30T04:49:58;94953.81;;;11.34;100.00
11268;BME280;49397;47.474;9.416;2023-08-30T04:52:23;94943.91;;;11.35;100.00
11268;BME280;49397;47.474;9.416;2023-08-30T04:54:49;94931.13;;;11.40;100.00
11268;BME280;49397;47.474;9.416;2023-08-30T04:57:15;94928.28;;;11.45;100.00
11268;BME280;49397;47.474;9.416;2023-08-30T04:59:42;94924.47;;;11.46;100.00
11268;BME280;49397;47.474;9.416;2023-08-30T05:02:07;94933.94;;;11.44;100.00
11268;BME280;49397;47.474;9.416;2023-08-30T05:04:33;94937.19;;;11.49;100.00
11268;BME280;49397;47.474;9.416;2023-08-30T05:06:58;94936.38;;;11.57;100.00
11268;BME280;49397;47.474;9.416;2023-08-30T05:09:24;94937.16;;;11.58;100.00
11268;BME280;49397;47.474;9.416;2023-08-30T05:11:51;94946.47;;;11.52;100.00
11268;BME280;49397;47.474;9.416;2023-08-30T05:14:16;94932.63;;;11.50;100.00
11268;BME280;49397;47.474;9.416;2023-08-30T05:16:41;94939.88;;;11.49;100.00
11268;BME280;49397;47.474;9.416;2023-08-30T05:19:07;94939.41;;;11.47;100.00
11268;BME280;49397;47.474;9.416;2023-08-30T05:21:32;94936.75;;;11.47;100.00
11268;BME280;49397;47.474;9.416;2023-08-30T05:23:57;94938.84;;;11.42;100.00
11268;BME280;49397;47.474;9.416;2023-08-30T05:26:23;94937.91;;;11.38;100.00
11268;BME280;49397;47.474;9.416;2023-08-30T05:28:48;94932.56;;;11.38;100.00
11268;BME280;49397;47.474;9.416;2023-08-30T05:31:14;94939.66;;;11.34;100.00
11268;BME280;49397;47.474;9.416;2023-08-30T05:33:39;94936.81;;;11.30;100.00
11268;BME280;49397;47.474;9.416;2023-08-30T05:36:04;94935.13;;;11.26;100.00
11268;BME280;49397;47.474;9.416;2023-08-30T05:38:30;94930.69;;;11.30;100.00
11268;BME280;49397;47.474;9.416;2023-08-30T05:40:55;94928.94;;;11.34;100.00
11268;BME280;49397;47.474;9.416;2023-08-30T05:43:20;94928.78;;;11.39;100.00
11268;BME280;49397;47.474;9.416;2023-08-30T05:45:46;94923.09;;;11.40;100.00
11268;BME280;49397;47.474;9.416;2023-08-30T05:48:11;94919.47;;;11.45;100.00
11268;BME280;49397;47.474;9.416;2023-08-30T05:50:36;94923.16;;;11.52;100.00
11268;BME280;49397;47.474;9.416;2023-08-30T05:53:03;94923.78;;;11.58;100.00
11268;BME280;49397;47.474;9.416;2023-08-30T05:55:29;94926.56;;;11.61;100.00
11268;BME280;49397;47.474;9.416;2023-08-30T05:57:54;94943.75;;;11.60;100.00
11268;BME280;49397;47.474;9.416;2023-08-30T06:00:20;94939.63;;;11.63;100.00
11268;BME280;49397;47.474;9.416;2023-08-30T06:02:45;94936.00;;;11.67;100.00
11268;BME280;49397;47.474;9.416;2023-08-30T06:05:11;94934.59;;;11.61;100.00
11268;BME280;49397;47.474;9.416;2023-08-30T06:07:36;94939.78;;;11.66;100.00
11268;BME280;49397;47.474;9.416;2023-08-30T06:10:02;94937.72;;;11.72;100.00
11268;BME280;49397;47.474;9.416;2023-08-30T06:12:28;94942.91;;;11.68;100.00
11268;BME280;49397;47.474;9.416;2023-08-30T06:14:53;94955.00;;;11.75;100.00
11268;BME280;49397;47.474;9.416;2023-08-30T06:17:19;94954.84;;;11.80;100.00
11268;BME280;49397;47.474;9.416;2023-08-30T06:19:45;94957.00;;;11.86;100.00
11268;BME280;49397;47.474;9.416;2023-08-30T06:22:11;94959.59;;;11.95;100.00
11268;BME280;49397;47.474;9.416;2023-08-30T06:24:36;94957.19;;;12.02;100.00
11268;BME280;49397;47.474;9.416;2023-08-30T06:27:02;94960.91;;;12.09;100.00
11268;BME280;49397;47.474;9.416;2023-08-30T06:29:27;94958.50;;;12.16;100.00
11268;BME280;49397;47.474;9.416;2023-08-30T06:31:52;94964.25;;;12.27;100.00
11268;BME280;49397;47.474;9.416;2023-08-30T06:34:18;94950.63;;;12.32;100.00
11268;BME280;49397;47.474;9.416;2023-08-30T06:36:43;94961.34;;;12.32;100.00
11268;BME280;49397;47.474;9.416;2023-08-30T06:39:08;94957.34;;;12.38;100.00
11268;BME280;49397;47.474;9.416;2023-08-30T06:41:34;94963.63;;;12.42;100.00
11268;BME280;49397;47.474;9.416;2023-08-30T06:43:59;94961.28;;;12.41;100.00
11268;BME280;49397;47.474;9.416;2023-08-30T06:46:25;94961.47;;;12.36;99.12
11268;BME280;49397;47.474;9.416;2023-08-30T06:48:50;94961.75;;;12.43;99.84
11268;BME280;49397;47.474;9.416;2023-08-30T06:51:15;94961.34;;;12.53;100.00
11268;BME280;49397;47.474;9.416;2023-08-30T06:53:41;94959.13;;;12.67;100.00
11268;BME280;49397;47.474;9.416;2023-08-30T06:56:06;94960.59;;;12.77;99.63
11268;BME280;49397;47.474;9.416;2023-08-30T06:58:32;94957.63;;;12.78;98.00
11268;BME280;49397;47.474;9.416;2023-08-30T07:00:57;94953.00;;;12.66;97.49
11268;BME280;49397;47.474;9.416;2023-08-30T07:03:23;94943.78;;;12.88;98.82
11268;BME280;49397;47.474;9.416;2023-08-30T07:05:51;94950.50;;;13.06;97.53
11268;BME280;49397;47.474;9.416;2023-08-30T07:08:16;94951.22;;;13.15;96.27
11268;BME280;49397;47.474;9.416;2023-08-30T07:10:42;94953.16;;;13.27;97.42
11268;BME280;49397;47.474;9.416;2023-08-30T07:13:07;94956.59;;;13.27;96.42
11268;BME280;49397;47.474;9.416;2023-08-30T07:15:36;94953.38;;;13.46;95.86
11268;BME280;49397;47.474;9.416;2023-08-30T07:18:02;94961.75;;;13.45;93.59
11268;BME280;49397;47.474;9.416;2023-08-30T07:20:29;94950.47;;;13.39;92.58
11268;BME280;49397;47.474;9.416;2023-08-30T07:22:54;94953.13;;;13.51;92.73
11268;BME280;49397;47.474;9.416;2023-08-30T07:25:19;94946.50;;;13.85;91.22
11268;BME280;49397;47.474;9.416;2023-08-30T07:27:45;94948.06;;;14.38;94.33
11268;BME280;49397;47.474;9.416;2023-08-30T07:30:10;94947.41;;;14.29;84.76
11268;BME280;49397;47.474;9.416;2023-08-30T07:32:36;94942.00;;;14.41;85.59
11268;BME280;49397;47.474;9.416;2023-08-30T07:35:04;94936.50;;;14.65;85.47
11268;BME280;49397;47.474;9.416;2023-08-30T07:37:29;94929.34;;;14.85;86.05
11268;BME280;49397;47.474;9.416;2023-08-30T07:39:55;94936.31;;;14.86;84.00
11268;BME280;49397;47.474;9.416;2023-08-30T07:42:20;94931.97;;;14.97;84.43
11268;BME280;49397;47.474;9.416;2023-08-30T07:44:45;94923.47;;;15.11;83.51
11268;BME280;49397;47.474;9.416;2023-08-30T07:47:11;94921.56;;;15.27;81.98
11268;BME280;49397;47.474;9.416;2023-08-30T07:49:36;94922.34;;;15.43;81.09
11268;BME280;49397;47.474;9.416;2023-08-30T07:52:02;94930.16;;;15.48;81.54
11268;BME280;49397;47.474;9.416;2023-08-30T07:54:28;94930.69;;;15.54;80.83
11268;BME280;49397;47.474;9.416;2023-08-30T07:56:54;94920.31;;;15.71;80.46
11268;BME280;49397;47.474;9.416;2023-08-30T07:59:19;94919.19;;;15.72;78.81
11268;BME280;49397;47.474;9.416;2023-08-30T08:01:46;94927.41;;;15.79;77.55
11268;BME280;49397;47.474;9.416;2023-08-30T08:04:11;94927.31;;;15.57;74.30
11268;BME280;49397;47.474;9.416;2023-08-30T08:06:36;94930.00;;;15.57;76.56
11268;BME280;49397;47.474;9.416;2023-08-30T08:09:02;94925.50;;;15.80;78.22
11268;BME280;49397;47.474;9.416;2023-08-30T08:11:27;94922.84;;;15.99;73.71
11268;BME280;49397;47.474;9.416;2023-08-30T08:13:53;94928.63;;;16.17;75.28
11268;BME280;49397;47.474;9.416;2023-08-30T08:16:18;94930.75;;;16.08;76.03
11268;BME280;49397;47.474;9.416;2023-08-30T08:18:44;94929.19;;;16.07;73.52
11268;BME280;49397;47.474;9.416;2023-08-30T08:21:10;94925.50;;;16.34;73.27
11268;BME280;49397;47.474;9.416;2023-08-30T08:23:35;94927.25;;;16.07;71.79
11268;BME280;49397;47.474;9.416;2023-08-30T08:26:01;94927.97;;;16.04;72.67
11268;BME280;49397;47.474;9.416;2023-08-30T08:28:28;94931.25;;;16.32;73.52
11268;BME280;49397;47.474;9.416;2023-08-30T08:30:53;94925.22;;;16.20;75.42
11268;BME280;49397;47.474;9.416;2023-08-30T08:33:20;94928.31;;;16.22;74.30
11268;BME280;49397;47.474;9.416;2023-08-30T08:35:49;94924.41;;;16.00;76.68
11268;BME280;49397;47.474;9.416;2023-08-30T08:38:14;94929.97;;;16.26;72.40
11268;BME280;49397;47.474;9.416;2023-08-30T08:40:40;94922.59;;;16.23;73.10
11268;BME280;49397;47.474;9.416;2023-08-30T08:43:06;94926.34;;;16.76;72.88
11268;BME280;49397;47.474;9.416;2023-08-30T08:45:35;94918.41;;;16.64;72.21
11268;BME280;49397;47.474;9.416;2023-08-30T08:48:05;94919.78;;;16.97;72.64
11268;BME280;49397;47.474;9.416;2023-08-30T08:50:31;94927.22;;;17.03;74.65
11268;BME280;49397;47.474;9.416;2023-08-30T08:52:57;94926.66;;;17.17;74.45
11268;BME280;49397;47.474;9.416;2023-08-30T08:55:23;94932.38;;;17.12;73.42
11268;BME280;49397;47.474;9.416;2023-08-30T08:57:48;94914.66;;;17.37;70.69
11268;BME280;49397;47.474;9.416;2023-08-30T09:00:14;94923.72;;;16.80;71.56
11268;BME280;49397;47.474;9.416;2023-08-30T09:02:42;94925.50;;;16.72;73.30
11268;BME280;49397;47.474;9.416;2023-08-30T09:05:08;94923.59;;;16.96;71.23
11268;BME280;49397;47.474;9.416;2023-08-30T09:07:34;94929.34;;;17.13;72.46
11268;BME280;49397;47.474;9.416;2023-08-30T09:10:01;94926.56;;;17.10;70.25
11268;BME280;49397;47.474;9.416;2023-08-30T09:12:26;94925.72;;;17.51;70.91
11268;BME280;49397;47.474;9.416;2023-08-30T09:14:57;94916.75;;;17.70;72.14
11268;BME280;49397;47.474;9.416;2023-08-30T09:17:23;94920.59;;;17.46;72.03
11268;BME280;49397;47.474;9.416;2023-08-30T09:19:49;94916.53;;;17.33;71.51
11268;BME280;49397;47.474;9.416;2023-08-30T09:22:14;94926.59;;;17.59;75.11
11268;BME280;49397;47.474;9.416;2023-08-30T09:24:41;94925.66;;;17.48;75.43
11268;BME280;49397;47.474;9.416;2023-08-30T09:27:06;94934.94;;;17.50;75.09
11268;BME280;49397;47.474;9.416;2023-08-30T09:29:32;94933.81;;;17.06;76.37
11268;BME280;49397;47.474;9.416;2023-08-30T09:31:58;94938.91;;;16.69;76.06
11268;BME280;49397;47.474;9.416;2023-08-30T09:34:26;94939.13;;;16.41;78.80
11268;BME280;49397;47.474;9.416;2023-08-30T09:36:53;94939.03;;;16.37;80.77
11268;BME280;49397;47.474;9.416;2023-08-30T09:39:19;94940.47;;;16.31;80.36
11268;BME280;49397;47.474;9.416;2023-08-30T09:41:46;94947.34;;;16.29;82.42
11268;BME280;49397;47.474;9.416;2023-08-30T09:46:45;94944.59;;;16.25;82.24
11268;BME280;49397;47.474;9.416;2023-08-30T09:49:12;94940.84;;;16.30;81.25
11268;BME280;49397;47.474;9.416;2023-08-30T09:51:39;94938.84;;;16.27;81.50
11268;BME280;49397;47.474;9.416;2023-08-30T09:54:15;94935.63;;;16.40;82.41
11268;BME280;49397;47.474;9.416;2023-08-30T09:56:44;94930.06;;;16.30;79.12
11268;BME280;49397;47.474;9.416;2023-08-30T09:59:11;94934.44;;;16.38;77.75
11268;BME280;49397;47.474;9.416;2023-08-30T10:01:38;94934.31;;;16.69;76.37
11268;BME280;49397;47.474;9.416;2023-08-30T10:04:04;94932.22;;;16.82;76.94
11268;BME280;49397;47.474;9.416;2023-08-30T10:06:32;94929.28;;;16.68;75.86
11268;BME280;49397;47.474;9.416;2023-08-30T10:08:58;94923.44;;;16.66;76.25
11268;BME280;49397;47.474;9.416;2023-08-30T10:11:26;94931.94;;;16.87;77.79
11268;BME280;49397;47.474;9.416;2023-08-30T10:13:52;94929.03;;;16.76;76.96
11268;BME280;49397;47.474;9.416;2023-08-30T10:16:22;94921.09;;;16.45;76.25
11268;BME280;49397;47.474;9.416;2023-08-30T10:19:03;94925.47;;;16.91;76.61
11268;BME280;49397;47.474;9.416;2023-08-30T10:21:34;94924.03;;;16.98;74.66
11268;BME280;49397;47.474;9.416;2023-08-30T10:24:02;94916.56;;;16.68;74.79
11268;BME280;49397;47.474;9.416;2023-08-30T10:26:29;94929.69;;;16.70;78.22
11268;BME280;49397;47.474;9.416;2023-08-30T10:28:56;94920.59;;;16.20;78.65
11268;BME280;49397;47.474;9.416;2023-08-30T10:31:22;94918.97;;;16.35;78.96
11268;BME280;49397;47.474;9.416;2023-08-30T10:33:53;94918.34;;;16.41;78.27
11268;BME280;49397;47.474;9.416;2023-08-30T10:36:28;94911.16;;;16.49;74.34
11268;BME280;49397;47.474;9.416;2023-08-30T10:38:53;94903.66;;;16.58;76.10
11268;BME280;49397;47.474;9.416;2023-08-30T10:41:21;94906.50;;;16.65;78.79
11268;BME280;49397;47.474;9.416;2023-08-30T10:43:50;94901.09;;;16.65;78.93
11268;BME280;49397;47.474;9.416;2023-08-30T10:46:16;94901.81;;;16.62;75.45
11268;BME280;49397;47.474;9.416;2023-08-30T10:48:42;94902.44;;;16.98;77.77
11268;BME280;49397;47.474;9.416;2023-08-30T10:51:22;94902.06;;;17.22;75.33
11268;BME280;49397;47.474;9.416;2023-08-30T10:53:59;94896.41;;;17.53;75.89
11268;BME280;49397;47.474;9.416;2023-08-30T10:56:31;94901.94;;;17.60;75.21
11268;BME280;49397;47.474;9.416;2023-08-30T10:58:57;94901.63;;;17.42;77.46
11268;BME280;49397;47.474;9.416;2023-08-30T11:01:23;94903.47;;;17.12;76.90
11268;BME280;49397;47.474;9.416;2023-08-30T11:03:49;94902.06;;;17.22;76.32
11268;BME280;49397;47.474;9.416;2023-08-30T11:06:15;94900.25;;;17.29;75.84
11268;BME280;49397;47.474;9.416;2023-08-30T11:08:43;94907.13;;;17.50;70.85
11268;BME280;49397;47.474;9.416;2023-08-30T11:11:09;94900.38;;;17.59;71.47
11268;BME280;49397;47.474;9.416;2023-08-30T11:13:36;94894.41;;;17.50;70.36
11268;BME280;49397;47.474;9.416;2023-08-30T11:16:02;94899.03;;;17.01;71.10
11268;BME280;49397;47.474;9.416;2023-08-30T11:18:39;94896.66;;;17.44;71.63
11268;BME280;49397;47.474;9.416;2023-08-30T11:21:05;94894.38;;;17.99;72.57
11268;BME280;49397;47.474;9.416;2023-08-30T11:23:31;94891.63;;;17.95;70.86
11268;BME280;49397;47.474;9.416;2023-08-30T11:25:57;94894.19;;;17.85;73.16
11268;BME280;49397;47.474;9.416;2023-08-30T11:28:23;94890.84;;;17.69;73.74
11268;BME280;49397;47.474;9.416;2023-08-30T11:30:49;94890.06;;;17.68;72.66
11268;BME280;49397;47.474;9.416;2023-08-30T11:33:17;94887.06;;;17.24;72.57
11268;BME280;49397;47.474;9.416;2023-08-30T11:35:44;94879.63;;;17.18;72.55
11268;BME280;49397;47.474;9.416;2023-08-30T11:38:10;94883.84;;;17.15;74.83
11268;BME280;49397;47.474;9.416;2023-08-30T11:40:35;94885.47;;;17.20;77.30
11268;BME280;49397;47.474;9.416;2023-08-30T11:43:02;94883.78;;;17.12;76.87
11268;BME280;49397;47.474;9.416;2023-08-30T11:45:31;94885.16;;;17.02;78.04
11268;BME280;49397;47.474;9.416;2023-08-30T11:47:58;94892.34;;;16.94;77.91
11268;BME280;49397;47.474;9.416;2023-08-30T11:50:24;94886.84;;;17.10;79.25
11268;BME280;49397;47.474;9.416;2023-08-30T11:52:50;94882.28;;;17.14;77.97
11268;BME280;49397;47.474;9.416;2023-08-30T11:55:15;94886.72;;;17.26;78.65
11268;BME280;49397;47.474;9.416;2023-08-30T11:57:43;94883.59;;;17.24;78.37
11268;BME280;49397;47.474;9.416;2023-08-30T12:00:12;94884.03;;;17.29;78.75
11268;BME280;49397;47.474;9.416;2023-08-30T12:02:41;94889.50;;;17.33;78.05
11268;BME280;49397;47.474;9.416;2023-08-30T12:05:11;94887.44;;;17.23;76.87
11268;BME280;49397;47.474;9.416;2023-08-30T12:07:36;94884.78;;;17.26;75.88
11268;BME280;49397;47.474;9.416;2023-08-30T12:10:10;94887.38;;;17.45;76.61
11268;BME280;49397;47.474;9.416;2023-08-30T12:12:36;94884.44;;;17.54;77.28
11268;BME280;49397;47.474;9.416;2023-08-30T12:15:12;94891.88;;;17.34;75.49
11268;BME280;49397;47.474;9.416;2023-08-30T12:17:38;94883.56;;;17.46;76.72
11268;BME280;49397;47.474;9.416;2023-08-30T12:20:03;94886.88;;;17.36;77.18
11268;BME280;49397;47.474;9.416;2023-08-30T12:22:37;94889.41;;;17.26;75.80
11268;BME280;49397;47.474;9.416;2023-08-30T12:25:03;94893.13;;;17.18;75.40
11268;BME280;49397;47.474;9.416;2023-08-30T12:27:29;94884.03;;;17.29;74.24
11268;BME280;49397;47.474;9.416;2023-08-30T12:29:55;94891.41;;;17.29;74.51
11268;BME280;49397;47.474;9.416;2023-08-30T12:32:20;94891.34;;;17.25;73.94
11268;BME280;49397;47.474;9.416;2023-08-30T12:34:46;94885.94;;;17.25;74.65
11268;BME280;49397;47.474;9.416;2023-08-30T12:37:11;94884.75;;;17.23;74.13
11268;BME280;49397;47.474;9.416;2023-08-30T12:39:36;94891.69;;;17.24;74.15
11268;BME280;49397;47.474;9.416;2023-08-30T12:42:02;94886.34;;;17.05;73.85
11268;BME280;49397;47.474;9.416;2023-08-30T12:44:28;94888.16;;;16.97;72.30
11268;BME280;49397;47.474;9.416;2023-08-30T12:46:54;94889.38;;;17.22;74.84
11268;BME280;49397;47.474;9.416;2023-08-30T12:49:19;94883.13;;;17.18;72.38
11268;BME280;49397;47.474;9.416;2023-08-30T12:51:45;94885.63;;;17.30;73.02
11268;BME280;49397;47.474;9.416;2023-08-30T12:54:10;94886.03;;;17.55;71.88
11268;BME280;49397;47.474;9.416;2023-08-30T12:56:35;94877.84;;;17.78;70.84
11268;BME280;49397;47.474;9.416;2023-08-30T12:59:01;94873.94;;;18.02;69.89
11268;BME280;49397;47.474;9.416;2023-08-30T13:01:26;94868.19;;;18.07;67.39